• Join FlightAware (Why Join?)
  • Login
  • US Flag 
11:38AM EST


 

Airport Tracker/Info


-or-


 

Live Flight TrackerFlight Track Log ✈ ASA628 ✈ 05-May-2012 ✈ KBLI - KLAS

Flight Track Log - Related Links

Times and Time Zones

All times are in EDT time to prevent confusion due to time zone crossing. See the ASA628 flight status page for this flight to view local times or setup timezone preferences in your user account.

Time Position Orientation Groundspeed Altitude Reporting Facility
EDT Latitude Longitude Course Direction KTS MPH feet Rate Location/Type
01:02PM 48.7667 -122.5333 194° South 140 161 1,000  Level Vancouver Center
01:07PM 48.4208 -122.6639 193° South 351 404 12,800 2,400 Climbing Seattle Center
01:08PM 48.3228 -122.6978 185° South 365 420 15,800 2,460 Climbing Seattle Center
01:09PM 48.2181 -122.7103 161° South 400 460 17,900 2,160 Climbing Seattle Center
01:10PM 48.1128 -122.6553 161° South 410 472 20,300 2,160 Climbing Seattle Center
01:11PM 48.0050 -122.6003 161° South 414 476 22,400 1,920 Climbing Seattle Center
01:12PM 47.8906 -122.5414 161° South 432 497 24,300 1,920 Climbing Seattle Center
01:13PM 47.7494 -122.4692 161° South 449 517 26,400 1,620 Climbing Seattle Center
01:14PM 47.6475 -122.4172 161° South 459 528 27,700 1,500 Climbing Seattle Center
01:15PM 47.5156 -122.3503 162° South 471 542 29,500 1,680 Climbing Seattle Center
01:16PM 47.3917 -122.2908 166° South 474 545 31,200 1,500 Climbing Seattle Center
01:17PM 47.2411 -122.2336 165° South 472 543 32,600 1,200 Climbing Seattle Center
01:18PM 47.1119 -122.1825 165° South 482 555 33,700 1,260 Climbing Seattle Center
01:19PM 46.9839 -122.1317 165° South 482 555 35,300 1,080 Climbing Seattle Center
01:20PM 46.8572 -122.0825 165° South 478 550 36,000 780 Climbing Seattle Center
01:21PM 46.7289 -122.0336 165° South 481 554 37,000 480 Climbing Seattle Center
01:22PM 46.6031 -121.9850 165° South 474 545 37,000  Level Seattle Center
01:24PM 46.4783 -121.9367 165° South 470 541 37,000  Level Seattle Center
01:25PM 46.3281 -121.8769 165° South 470 541 37,000  Level Seattle Center
01:26PM 46.2053 -121.8300 166° South 472 543 37,000  Level Seattle Center
01:27PM 46.0778 -121.7828 166° South 475 547 37,000  Level Seattle Center
01:28PM 45.9489 -121.7353 164° South 479 551 37,000  Level Seattle Center
01:29PM 45.8225 -121.6839 166° South 477 549 37,000  Level Seattle Center
01:30PM 45.6925 -121.6358 165° South 484 557 37,000  Level Seattle Center
01:31PM 45.5681 -121.5897 165° South 472 543 37,000  Level Seattle Center
01:32PM 45.4175 -121.5342 166° South 471 542 37,000  Level Seattle Center
01:33PM 45.2903 -121.4889 165° South 473 544 37,000  Level Seattle Center
01:34PM 45.1639 -121.4403 165° South 473 544 37,000  Level Seattle Center
01:35PM 45.0383 -121.3942 165° South 473 544 37,000  Level Seattle Center
01:36PM 44.9131 -121.3475 166° South 471 542 37,000  Level Seattle Center
01:37PM 44.7883 -121.3039 165° South 468 539 37,000  Level Seattle Center
01:38PM 44.6625 -121.2578 166° South 470 541 37,000  Level Seattle Center
01:39PM 44.5278 -121.2103 166° South 470 541 37,000  Level Seattle Center
01:40PM 44.4011 -121.1653 166° South 470 541 37,000  Level Seattle Center
01:41PM 44.2614 -121.1153 166° South 470 541 37,000  Level Seattle Center
01:42PM 44.1344 -121.0708 166° South 473 544 37,000  Level Seattle Center
01:43PM 44.0081 -121.0281 165° South 473 544 37,000  Level Seattle Center
01:44PM 43.8842 -120.9831 166° South 467 537 37,000  Level Seattle Center
01:45PM 43.7592 -120.9392 166° South 466 536 37,000  Level Seattle Center
01:46PM 43.6353 -120.8967 166° South 464 534 37,000  Level Seattle Center
01:47PM 43.5011 -120.8522 166° South 462 532 37,000  Level Seattle Center
01:48PM 43.3761 -120.8092 166° South 461 531 37,000  Level Seattle Center
01:49PM 43.2522 -120.7672 166° South 459 528 37,000  Level Seattle Center
01:50PM 43.1261 -120.7231 166° South 464 534 37,000  Level Seattle Center
01:51PM 43.0022 -120.6811 166° South 459 528 37,000  Level Seattle Center
01:52PM 42.8528 -120.6306 166° South 459 528 37,000  Level Seattle Center
01:53PM 42.7294 -120.5886 166° South 457 526 37,000  Level Seattle Center
01:54PM 42.6056 -120.5478 166° South 457 526 37,000  Level Seattle Center
01:55PM 42.4803 -120.5047 160° South 461 531 37,000  Level Seattle Center
01:56PM 42.3581 -120.4456 161° South 467 537 37,000  Level Seattle Center
01:57PM 42.2350 -120.3883 161° South 466 536 37,000  Level Seattle Center
01:58PM 42.1133 -120.3331 161° South 462 532 37,000  Level Seattle Center
01:59PM 41.9922 -120.2767 161° South 462 532 37,000  Level Seattle Center
02:00PM 41.8703 -120.2208 161° South 461 531 37,000  Level Seattle Center
02:01PM 41.7492 -120.1658 161° South 460 529 37,000  Level Seattle Center
02:02PM 41.6278 -120.1097 161° South 460 529 37,000  Level Seattle Center
02:03PM 41.5083 -120.0547 161° South 457 526 37,000  Level Seattle Center
02:04PM 41.3875 -120.0008 161° South 456 525 37,000  Level Seattle Center
02:05PM 41.2422 -119.9353 162° South 457 526 37,000  Level Seattle Center
02:06PM 41.1203 -119.8825 161° South 459 528 37,000  Level Seattle Center
02:07PM 40.9994 -119.8286 162° South 459 528 37,000  Level Seattle Center
02:08PM 40.8772 -119.7747 161° South 461 531 37,000  Level Seattle Center
02:09PM 40.7558 -119.7206 161° South 461 531 37,000  Level Seattle Center
02:10PM 40.6344 -119.6664 163° South 460 529 37,000  Level Seattle Center
02:11PM 40.5325 -119.6244 162° South 467 537 37,000  Level Oakland Center
02:12PM 40.4111 -119.5722 160° South 467 537 37,000  Level Oakland Center
02:13PM 40.2894 -119.5147 149° Southeast 467 537 37,000  Level Oakland Center
02:14PM 40.1800 -119.4303 148° Southeast 467 537 37,000  Level Oakland Center
02:15PM 40.0725 -119.3431 147° Southeast 462 532 37,000  Level Oakland Center
02:16PM 39.9628 -119.2508 148° Southeast 462 532 37,000  Level Oakland Center
02:17PM 39.8553 -119.1642 149° Southeast 462 532 37,000  Level Oakland Center
02:18PM 39.7433 -119.0753 148° Southeast 467 537 37,000  Level Oakland Center
02:19PM 39.6356 -118.9892 148° Southeast 467 537 37,000  Level Oakland Center
02:20PM 39.5278 -118.9006 148° Southeast 462 532 37,000  Level Oakland Center
02:21PM 39.4072 -118.8047 147° Southeast 462 532 37,000  Level Oakland Center
02:22PM 39.3011 -118.7167 150° Southeast 456 525 37,000  Level Oakland Center
02:23PM 39.1892 -118.6319 148° Southeast 466 536 37,000  Level Oakland Center
02:24PM 39.0808 -118.5444 149° Southeast 466 536 37,000  Level Oakland Center
02:25PM 38.9728 -118.4600 148° Southeast 461 531 37,000  Level Oakland Center
02:26PM 38.8667 -118.3756 149° Southeast 461 531 37,000  Level Oakland Center
02:27PM 38.7583 -118.2917 148° Southeast 461 531 37,000  Level Oakland Center
02:28PM 38.6522 -118.2078 148° Southeast 461 531 37,000  Level Oakland Center
02:29PM 38.5458 -118.1242 149° Southeast 456 525 37,000  Level Oakland Center
02:30PM 38.4439 -118.0461 149° Southeast 451 519 37,000  Level Oakland Center
02:31PM 38.3375 -117.9656 149° Southeast 451 519 37,000  Level Oakland Center
02:32PM 38.2333 -117.8853 149° Southeast 446 513 37,000  Level Oakland Center
02:33PM 38.1289 -117.8053 150° Southeast 441 507 37,000  Level Oakland Center
02:34PM 38.0225 -117.7281 149° Southeast 441 507 37,000  Level Oakland Center
02:35PM 37.9181 -117.6483 149° Southeast 441 507 37,000 -120 Level Oakland Center
02:36PM 37.8156 -117.5689 149° Southeast 441 507 36,800 -1,140 Descending Oakland Center
02:38PM 37.5794 -117.3914 150° Southeast 435 501 33,500 -1,200 Descending Los Angeles Center
02:39PM 37.4678 -117.3086 147° Southeast 447 514 33,000 -300 Descending Los Angeles Center
02:40PM 37.3603 -117.2208 146° Southeast 453 521 33,000  Level Los Angeles Center
02:41PM 37.2525 -117.1306 146° Southeast 464 534 33,000  Level Los Angeles Center
02:42PM 37.1492 -117.0433 146° Southeast 464 534 33,000  Level Los Angeles Center
02:43PM 37.0433 -116.9536 148° Southeast 459 528 33,000  Level Los Angeles Center
02:44PM 36.9375 -116.8694 145° Southeast 459 528 33,000  Level Los Angeles Center
02:45PM 36.8381 -116.7828 137° Southeast 454 522 33,000 -1,200 Level Los Angeles Center
02:46PM 36.7489 -116.6783 131° Southeast 449 517 30,600 -2,400 Descending Los Angeles Center
02:47PM 36.6681 -116.5639 131° Southeast 444 511 28,300 -2,400 Descending Los Angeles Center
02:48PM 36.5869 -116.4497 130° Southeast 439 505 25,900 -2,220 Descending Los Angeles Center
02:49PM 36.5100 -116.3358 131° Southeast 451 519 23,900 -2,100 Descending Los Angeles Center
02:50PM 36.4308 -116.2244 134° Southeast 451 519 21,700 -2,400 Descending Los Angeles Center
02:51PM 36.3517 -116.1214 131° Southeast 423 487 19,100 -2,400 Descending Los Angeles Center
02:52PM 36.2850 -116.0258 132° Southeast 397 457 17,300 -1,620 Descending Los Angeles Center
02:53PM 36.2117 -115.9256 114° Southeast 369 425 16,100 -660 Descending Los Angeles Center
02:54PM 36.1719 -115.8153 111° Southeast 333 383 16,000 -420 Descending Los Angeles Center
02:55PM 36.1383 -115.7097 111° Southeast 328 377 15,300 -780 Descending Los Angeles Center
02:56PM 36.1044 -115.6019 111° Southeast 328 377 14,500 -1,200 Descending Los Angeles Center
02:57PM 36.0706 -115.4944 112° Southeast 333 383 12,900 -1,260 Descending Los Angeles Center
02:58PM 36.0389 -115.3969 101° East 327 376 12,000 -480 Descending Los Angeles Center
02:59PM 36.0256 -115.3097 95° East 290 334 12,000 -480 Level Los Angeles Center
03:00PM 36.0211 -115.2431 97° East 206 237 11,100 -960 Descending Los Angeles Center
03:01PM 36.0144 -115.1789 127° Southeast 203 234 10,200 -1,260 Descending Los Angeles Center
03:02PM 35.9869 -115.1331 206° Southwest 202 232 8,700 -1,320 Descending Los Angeles Center
03:03PM 35.9350 -115.1644 265° West 206 237 7,600 -1,140 Descending Los Angeles Center
03:05PM 35.9311 -115.2211 338° Northwest 186 214 6,300 -1,140 Descending Los Angeles Center
03:05PM 35.9606 -115.2361 23° Northeast 101 116 5,300 -1,140 Descending Los Angeles Center
03:06PM 36.0061 -115.2125 28° Northeast 92 106 4,100 -1,200 Descending Los Angeles Center
03:07PM 36.0497 -115.1836 23° Northeast 92 106 2,900 -1,020 Descending Los Angeles Center
03:08PM 36.0892 -115.1628 52° Northeast 103 119 2,100 -420 Descending Los Angeles Center
03:09PM 36.1119 -115.1264 17° North 114 131 2,100 6,900 Level Los Angeles Center
03:10PM 36.1472 -115.1131 19° North 114 131 16,000 6,900 Climbing Los Angeles Center
03:11PM 36.1786 -115.1000 167° South 114 131 16,000  Level Los Angeles Center
03:19PM 35.9883 -115.0467 73° East  Level FlightAware Approximate
03:20PM 36.0218 -114.9127 294° West  Level FlightAware Approximate
03:21PM 36.0667 -115.0374 270° West  Level FlightAware Approximate
03:22PM 36.0667 -115.1500 352° North  Level FlightAware Approximate
03:23PM 36.1795 -115.1690 352° North  Level Estimated